Time;durP1;ratioP1;P1;durP2;ratioP2;P2;SDS_P1;SDS_P2;PMS_P1;PMS_P2;Temp;Humidity;BMP_temperature;BMP_pressure;BME280_temperature;BME280_humidity;BME280_pressure;Samples;Min_cycle;Max_cycle;Signal;HPM_P1;HPM_P2
2021/05/01 00:01:07;;;;;;;50.05;33.25;;;8.10;99.90;;;;;;5050195;28;20393;-62
2021/05/01 00:03:33;;;;;;;44.30;31.15;;;8.10;99.90;;;;;;5052854;28;20048;-63
2021/05/01 00:05:59;;;;;;;49.63;33.40;;;8.10;99.90;;;;;;5043745;28;20573;-63
2021/05/01 00:08:28;;;;;;;49.33;32.22;;;8.00;99.90;;;;;;5042536;28;20029;-63
2021/05/01 00:10:59;;;;;;;49.97;33.38;;;8.00;99.90;;;;;;5043423;28;20056;-62
2021/05/01 00:13:25;;;;;;;50.50;33.72;;;8.00;99.90;;;;;;5045716;28;20021;-64
2021/05/01 00:15:50;;;;;;;51.47;35.38;;;8.00;99.90;;;;;;5046156;28;20104;-63
2021/05/01 00:18:16;;;;;;;59.90;38.35;;;8.00;99.90;;;;;;5042284;28;20494;-64
2021/05/01 00:20:42;;;;;;;62.15;38.65;;;8.00;99.90;;;;;;5042670;28;20450;-62
2021/05/01 00:23:07;;;;;;;63.40;41.10;;;8.00;99.90;;;;;;5043970;28;20072;-63
2021/05/01 00:25:33;;;;;;;66.10;44.80;;;7.90;99.90;;;;;;5046208;28;20474;-63
2021/05/01 00:27:58;;;;;;;70.05;43.03;;;8.00;99.90;;;;;;5046920;28;20100;-62
2021/05/01 00:30:24;;;;;;;67.35;43.22;;;8.00;99.90;;;;;;5026732;28;20119;-62
2021/05/01 00:32:50;;;;;;;67.25;40.92;;;7.90;99.90;;;;;;5051578;28;20088;-64
2021/05/01 00:35:16;;;;;;;67.50;42.05;;;8.00;99.90;;;;;;5059326;28;20042;-62
2021/05/01 00:37:41;;;;;;;69.07;43.38;;;7.90;99.90;;;;;;5052101;28;20111;-64
2021/05/01 00:40:08;;;;;;;72.60;44.55;;;8.00;99.90;;;;;;5041433;28;20036;-64
2021/05/01 00:42:34;;;;;;;70.13;45.55;;;8.00;99.90;;;;;;5055435;28;20037;-64
2021/05/01 00:45:00;;;;;;;70.47;47.03;;;7.90;99.90;;;;;;5047743;28;20033;-63
2021/05/01 00:47:26;;;;;;;72.07;48.00;;;7.90;99.90;;;;;;5064697;28;20089;-58
2021/05/01 00:49:51;;;;;;;66.75;44.35;;;7.90;99.90;;;;;;5048828;28;20070;-63
2021/05/01 00:52:17;;;;;;;72.47;44.67;;;7.90;99.90;;;;;;5046573;28;20555;-63
2021/05/01 00:54:43;;;;;;;68.18;45.45;;;7.90;99.90;;;;;;5057770;28;20060;-62
2021/05/01 00:57:10;;;;;;;69.85;43.80;;;7.90;99.90;;;;;;5064852;28;20438;-64
2021/05/01 00:59:36;;;;;;;76.53;47.42;;;7.80;99.90;;;;;;5053843;28;20457;-64
2021/05/01 01:02:01;;;;;;;67.13;43.38;;;7.80;99.90;;;;;;5057817;28;20025;-64
2021/05/01 01:04:27;;;;;;;71.28;45.45;;;7.80;99.90;;;;;;5052047;28;20028;-64
2021/05/01 01:06:53;;;;;;;72.65;45.22;;;7.80;99.90;;;;;;5060924;28;20363;-62
2021/05/01 01:09:18;;;;;;;76.47;47.60;;;7.80;99.90;;;;;;5038503;28;20032;-62
2021/05/01 01:11:44;;;;;;;74.75;48.47;;;7.80;99.90;;;;;;5051013;28;20021;-63
2021/05/01 01:14:13;;;;;;;77.68;48.20;;;7.80;99.90;;;;;;5044181;28;20032;-63
2021/05/01 01:16:40;;;;;;;78.68;51.08;;;7.80;99.90;;;;;;5048033;28;20025;-62
2021/05/01 01:19:07;;;;;;;75.03;49.17;;;7.80;99.90;;;;;;5058745;28;20038;-63
2021/05/01 01:21:46;;;;;;;78.40;49.60;;;7.90;99.90;;;;;;5050740;28;20398;-63
2021/05/01 01:24:12;;;;;;;75.18;46.60;;;7.80;99.90;;;;;;5044268;28;20099;-63
2021/05/01 01:26:40;;;;;;;79.43;49.22;;;7.90;99.90;;;;;;5055767;28;20036;-63
2021/05/01 01:29:06;;;;;;;76.38;49.17;;;7.80;99.90;;;;;;5054879;28;20030;-63
2021/05/01 01:31:33;;;;;;;77.45;49.35;;;7.80;99.90;;;;;;5061354;28;20032;-64
2021/05/01 01:34:00;;;;;;;83.03;48.67;;;7.80;99.90;;;;;;5050946;28;20033;-62
2021/05/01 01:36:26;;;;;;;78.80;49.03;;;7.80;99.90;;;;;;5053713;28;20051;-62
2021/05/01 01:38:52;;;;;;;77.95;48.50;;;7.80;99.90;;;;;;5060030;28;20036;-61
2021/05/01 01:41:17;;;;;;;76.78;49.30;;;7.80;99.90;;;;;;5041602;28;20064;-63
2021/05/01 01:43:43;;;;;;;78.55;48.30;;;7.80;99.90;;;;;;5052841;28;20056;-63
2021/05/01 01:46:09;;;;;;;75.97;47.90;;;7.80;99.90;;;;;;5055908;28;20036;-62
2021/05/01 01:48:34;;;;;;;81.80;49.40;;;7.80;99.90;;;;;;5045237;28;20027;-62
2021/05/01 01:51:00;;;;;;;77.72;50.55;;;7.80;99.90;;;;;;5048508;28;20057;-62
2021/05/01 01:53:25;;;;;;;78.18;49.78;;;7.70;99.90;;;;;;5051911;28;20041;-63
2021/05/01 01:55:52;;;;;;;82.88;48.15;;;7.70;99.90;;;;;;5056267;28;20031;-63
2021/05/01 01:58:18;;;;;;;80.47;49.22;;;7.70;99.90;;;;;;5046897;28;20037;-63
2021/05/01 02:00:45;;;;;;;79.50;49.63;;;7.70;99.90;;;;;;5052312;28;20075;-63
2021/05/01 02:03:11;;;;;;;76.75;48.40;;;7.60;99.90;;;;;;5049483;28;20032;-64
2021/05/01 02:05:36;;;;;;;76.95;49.45;;;7.60;99.90;;;;;;5056291;28;20033;-62
2021/05/01 02:08:02;;;;;;;74.65;48.83;;;7.60;99.90;;;;;;5051542;28;20418;-62
2021/05/01 02:10:27;;;;;;;76.75;47.90;;;7.60;99.90;;;;;;5052533;28;20025;-63
2021/05/01 02:12:53;;;;;;;82.25;48.83;;;7.60;99.90;;;;;;5053272;28;20518;-63
2021/05/01 02:15:21;;;;;;;80.10;50.85;;;7.60;99.90;;;;;;5053727;28;20025;-62
2021/05/01 02:17:49;;;;;;;81.03;50.13;;;7.60;99.90;;;;;;5054068;28;20033;-64
2021/05/01 02:20:20;;;;;;;81.32;51.60;;;7.60;99.90;;;;;;5048160;28;20111;-64
2021/05/01 02:22:46;;;;;;;82.78;51.70;;;7.50;99.90;;;;;;5059810;28;20037;-63
2021/05/01 02:25:13;;;;;;;86.80;51.65;;;7.50;99.90;;;;;;5054983;28;20509;-62
2021/05/01 02:27:40;;;;;;;83.22;52.45;;;7.40;99.90;;;;;;5054441;28;20019;-62
2021/05/01 02:30:11;;;;;;;87.07;54.03;;;7.30;99.90;;;;;;5047443;28;20078;-63
2021/05/01 02:32:37;;;;;;;86.85;53.47;;;7.30;99.90;;;;;;5057685;28;20032;-62
2021/05/01 02:35:08;;;;;;;89.05;53.80;;;7.30;99.90;;;;;;5045537;28;20032;-61
2021/05/01 02:37:34;;;;;;;83.72;52.20;;;7.20;99.90;;;;;;5053394;28;20090;-63
2021/05/01 02:40:00;;;;;;;92.55;55.20;;;7.10;99.90;;;;;;5051121;28;20094;-62
2021/05/01 02:42:25;;;;;;;89.30;52.38;;;7.10;99.90;;;;;;5052557;28;20414;-63
2021/05/01 02:44:51;;;;;;;92.20;55.78;;;7.10;99.90;;;;;;5046946;28;20037;-63
2021/05/01 02:47:17;;;;;;;92.28;56.35;;;7.00;99.90;;;;;;5052781;28;20355;-63
2021/05/01 02:49:43;;;;;;;82.65;52.08;;;7.00;99.90;;;;;;5041822;28;20025;-60
2021/05/01 02:52:08;;;;;;;93.57;55.35;;;7.00;99.90;;;;;;5047422;28;20025;-61
2021/05/01 02:54:34;;;;;;;87.72;54.42;;;6.90;99.90;;;;;;5058222;28;20025;-64
2021/05/01 02:56:59;;;;;;;96.47;55.92;;;6.90;99.90;;;;;;5057072;28;20021;-63
2021/05/01 02:59:25;;;;;;;93.18;56.05;;;6.80;99.90;;;;;;5052976;28;20036;-63
2021/05/01 03:01:51;;;;;;;92.50;55.70;;;6.70;99.90;;;;;;5052442;28;20032;-62
2021/05/01 03:04:16;;;;;;;90.43;53.63;;;6.70;99.90;;;;;;5063268;28;20146;-62
2021/05/01 03:06:42;;;;;;;91.97;56.13;;;6.60;99.90;;;;;;5054676;28;20044;-63
2021/05/01 03:09:07;;;;;;;94.50;57.97;;;6.50;99.90;;;;;;5049791;28;20082;-63
2021/05/01 03:11:33;;;;;;;101.70;59.20;;;6.40;99.90;;;;;;5047625;28;20093;-63
2021/05/01 03:13:59;;;;;;;109.10;60.72;;;6.30;99.90;;;;;;5056884;28;20025;-62
2021/05/01 03:16:24;;;;;;;99.82;58.75;;;6.30;99.90;;;;;;5053006;28;20056;-63
2021/05/01 03:18:50;;;;;;;100.90;58.95;;;6.30;99.90;;;;;;5060674;28;20028;-62
2021/05/01 03:21:15;;;;;;;104.18;59.78;;;6.20;99.90;;;;;;5065622;28;20074;-61
2021/05/01 03:23:41;;;;;;;103.82;57.97;;;6.10;99.90;;;;;;5052769;28;20029;-64
2021/05/01 03:26:07;;;;;;;113.18;61.95;;;6.00;99.90;;;;;;5049523;28;20722;-63
2021/05/01 03:28:32;;;;;;;105.63;60.20;;;6.00;99.90;;;;;;5046579;28;20029;-63
2021/05/01 03:30:58;;;;;;;116.30;61.42;;;5.90;99.90;;;;;;5045489;28;20086;-63
2021/05/01 03:33:26;;;;;;;114.63;61.80;;;5.90;99.90;;;;;;5061947;28;20028;-63
2021/05/01 03:35:52;;;;;;;118.15;64.75;;;6.00;99.90;;;;;;5056244;28;20108;-63
2021/05/01 03:38:17;;;;;;;109.22;61.78;;;6.10;99.90;;;;;;5061051;28;20485;-64
2021/05/01 03:40:43;;;;;;;113.53;60.20;;;6.20;99.90;;;;;;5060148;28;20524;-62
2021/05/01 03:43:10;;;;;;;119.53;62.67;;;6.20;99.90;;;;;;5053901;28;20094;-62
2021/05/01 03:45:36;;;;;;;118.15;64.05;;;6.30;99.90;;;;;;5054835;28;20402;-64
2021/05/01 03:48:02;;;;;;;116.35;63.80;;;6.40;99.90;;;;;;5059069;28;20029;-63
2021/05/01 03:50:28;;;;;;;103.32;59.25;;;6.40;99.90;;;;;;5054199;28;20028;-62
2021/05/01 03:52:53;;;;;;;105.43;59.88;;;6.50;99.90;;;;;;5049862;28;20021;-63
2021/05/01 03:55:19;;;;;;;104.10;59.85;;;6.50;99.90;;;;;;5046700;28;20033;-63
2021/05/01 03:57:44;;;;;;;108.18;62.65;;;6.50;99.90;;;;;;5052418;28;20037;-63
2021/05/01 04:00:10;;;;;;;101.15;60.33;;;6.60;99.90;;;;;;5054195;28;20032;-63
2021/05/01 04:02:36;;;;;;;97.32;57.42;;;6.60;99.90;;;;;;5054933;28;20033;-64
2021/05/01 04:05:03;;;;;;;93.35;57.88;;;6.60;99.90;;;;;;5058024;28;20025;-64
2021/05/01 04:07:29;;;;;;;101.72;60.63;;;6.60;99.90;;;;;;5040888;28;20055;-64
2021/05/01 04:09:54;;;;;;;99.55;60.08;;;6.60;99.90;;;;;;5041082;28;20037;-63
2021/05/01 04:12:20;;;;;;;100.95;60.78;;;6.60;99.90;;;;;;5045928;28;20017;-63
2021/05/01 04:14:45;;;;;;;99.93;59.67;;;6.70;99.90;;;;;;5050310;28;20383;-62
2021/05/01 04:17:11;;;;;;;102.90;62.63;;;6.70;99.90;;;;;;5046446;28;20123;-64
2021/05/01 04:19:36;;;;;;;101.55;60.25;;;6.70;99.90;;;;;;5056350;28;20091;-63
2021/05/01 04:22:04;;;;;;;98.57;60.00;;;6.70;99.90;;;;;;5056396;28;20052;-63
2021/05/01 04:24:31;;;;;;;101.00;62.63;;;6.70;99.90;;;;;;5041874;28;20029;-64
2021/05/01 04:26:57;;;;;;;98.90;59.72;;;6.70;99.90;;;;;;5047409;28;20036;-63
2021/05/01 04:29:23;;;;;;;100.53;60.17;;;6.70;99.90;;;;;;5056259;28;20025;-63
2021/05/01 04:31:49;;;;;;;100.65;60.60;;;6.80;99.90;;;;;;5047430;28;20098;-62
2021/05/01 04:34:15;;;;;;;100.63;60.63;;;6.80;99.90;;;;;;5040784;28;20508;-64
2021/05/01 04:36:40;;;;;;;101.22;58.65;;;6.80;99.90;;;;;;5042547;28;20029;-63
2021/05/01 04:39:07;;;;;;;102.82;62.78;;;6.90;99.90;;;;;;5046454;28;20046;-62
2021/05/01 04:41:34;;;;;;;102.82;62.10;;;6.90;99.90;;;;;;5057649;28;20565;-63
2021/05/01 04:44:00;;;;;;;103.60;62.47;;;6.90;99.90;;;;;;5057486;28;20371;-64
2021/05/01 04:46:26;;;;;;;104.18;61.38;;;6.90;99.90;;;;;;5058265;28;20051;-63
2021/05/01 04:48:51;;;;;;;102.53;59.85;;;6.90;99.90;;;;;;5049959;28;20117;-64
2021/05/01 04:51:18;;;;;;;102.32;61.10;;;7.00;99.90;;;;;;5047859;28;20028;-62
2021/05/01 04:53:44;;;;;;;102.88;61.20;;;7.00;99.90;;;;;;5047192;28;20030;-64
2021/05/01 04:56:10;;;;;;;101.75;59.40;;;7.00;99.90;;;;;;5057996;28;20115;-63
2021/05/01 04:58:36;;;;;;;100.65;60.70;;;7.10;99.90;;;;;;5037281;28;20137;-63
2021/05/01 05:01:01;;;;;;;102.90;60.38;;;7.10;99.90;;;;;;5056759;28;20036;-63
2021/05/01 05:03:27;;;;;;;93.82;59.33;;;7.10;99.90;;;;;;5057881;28;20052;-64
2021/05/01 05:05:52;;;;;;;95.60;59.67;;;7.10;99.90;;;;;;5058551;28;20048;-63
2021/05/01 05:08:18;;;;;;;94.43;58.65;;;7.10;99.90;;;;;;5043916;28;20029;-62
2021/05/01 05:10:44;;;;;;;100.72;59.25;;;7.10;99.90;;;;;;5064496;28;20036;-63
2021/05/01 05:13:09;;;;;;;95.63;57.92;;;7.20;99.90;;;;;;5043560;28;20064;-64
2021/05/01 05:15:35;;;;;;;91.72;57.78;;;7.20;99.90;;;;;;5042613;28;20041;-63
2021/05/01 05:18:00;;;;;;;90.57;57.67;;;7.30;99.90;;;;;;5035075;28;20040;-63
2021/05/01 05:20:26;;;;;;;88.90;56.13;;;7.50;99.90;;;;;;5047109;28;20047;-63
2021/05/01 05:22:52;;;;;;;91.00;57.03;;;7.70;99.90;;;;;;5059394;28;20025;-63
2021/05/01 05:25:17;;;;;;;92.32;55.45;;;7.70;99.90;;;;;;5046958;28;20082;-63
2021/05/01 05:27:43;;;;;;;95.75;58.35;;;7.70;99.90;;;;;;5056530;28;20079;-61
2021/05/01 05:30:09;;;;;;;97.70;58.65;;;7.70;99.90;;;;;;5042531;28;20043;-64
2021/05/01 05:32:34;;;;;;;102.57;61.80;;;7.70;99.90;;;;;;5056672;28;20065;-64
2021/05/01 05:35:00;;;;;;;96.80;60.20;;;8.00;99.90;;;;;;5048313;28;20120;-64
2021/05/01 05:37:26;;;;;;;104.03;61.08;;;8.00;99.90;;;;;;5058581;28;20053;-64
2021/05/01 05:39:53;;;;;;;91.88;58.50;;;8.00;99.90;;;;;;5050177;28;20088;-63
2021/05/01 05:42:19;;;;;;;97.93;60.45;;;7.90;99.90;;;;;;5054256;28;20454;-64
2021/05/01 05:44:47;;;;;;;94.07;58.80;;;7.80;99.90;;;;;;5045346;28;20041;-62
2021/05/01 05:47:15;;;;;;;93.75;56.88;;;7.80;99.90;;;;;;5064678;28;20107;-63
2021/05/01 05:49:41;;;;;;;97.53;55.92;;;7.70;99.90;;;;;;5062593;28;20405;-64
2021/05/01 05:52:06;;;;;;;91.10;55.33;;;7.90;99.90;;;;;;5058626;28;20033;-62
2021/05/01 05:54:32;;;;;;;89.82;55.55;;;8.10;99.90;;;;;;5054097;28;20064;-60
2021/05/01 05:56:58;;;;;;;91.22;55.83;;;8.40;99.90;;;;;;5055318;28;20029;-64
2021/05/01 05:59:24;;;;;;;93.47;58.45;;;8.50;99.90;;;;;;5051512;28;20048;-63
2021/05/01 06:01:51;;;;;;;80.90;52.10;;;8.90;99.90;;;;;;5049371;28;20060;-64
2021/05/01 06:04:21;;;;;;;76.43;49.70;;;9.70;99.90;;;;;;5057524;28;20045;-64
2021/05/01 06:07:09;;;;;;;73.80;47.22;;;9.90;99.90;;;;;;5046781;28;20425;-65
2021/05/01 06:09:38;;;;;;;75.35;50.70;;;10.10;99.90;;;;;;5047853;28;20021;-64
2021/05/01 06:12:04;;;;;;;76.50;50.17;;;10.10;99.90;;;;;;5049751;28;20104;-64
2021/05/01 06:14:31;;;;;;;73.00;48.75;;;9.90;99.90;;;;;;5059929;28;20021;-64
2021/05/01 06:16:59;;;;;;;80.90;53.15;;;9.70;99.90;;;;;;5050609;28;20383;-64
2021/05/01 06:19:24;;;;;;;82.60;52.88;;;9.50;99.90;;;;;;5063455;28;20040;-64
2021/05/01 06:21:50;;;;;;;88.10;54.58;;;9.30;99.90;;;;;;5061512;28;20032;-63
2021/05/01 06:24:17;;;;;;;87.70;56.97;;;9.10;99.90;;;;;;5041624;28;20036;-63
2021/05/01 06:26:44;;;;;;;76.68;53.70;;;8.90;99.90;;;;;;5048959;28;20025;-64
2021/05/01 06:29:10;;;;;;;77.15;50.33;;;8.80;99.90;;;;;;5054114;28;20021;-63
2021/05/01 06:31:37;;;;;;;87.30;55.85;;;8.70;99.90;;;;;;5033536;28;20033;-64
2021/05/01 06:34:04;;;;;;;79.50;51.03;;;8.70;99.90;;;;;;5043666;28;20379;-62
2021/05/01 06:36:30;;;;;;;82.00;49.70;;;8.80;99.90;;;;;;5051264;28;20032;-64
2021/05/01 06:39:00;;;;;;;79.15;49.72;;;9.90;99.90;;;;;;5045170;28;20029;-64
2021/05/01 06:41:33;;;;;;;64.60;45.75;;;11.10;99.90;;;;;;5060056;28;20493;-63
2021/05/01 06:44:08;;;;;;;59.10;42.85;;;12.50;99.90;;;;;;5059650;28;20557;-64
2021/05/01 06:46:40;;;;;;;62.20;45.92;;;12.90;99.90;;;;;;5046714;28;20029;-63
2021/05/01 06:49:10;;;;;;;58.92;43.50;;;12.90;99.90;;;;;;5064915;28;20067;-63
2021/05/01 06:51:38;;;;;;;58.17;43.75;;;12.90;99.90;;;;;;5056673;28;20731;-64
2021/05/01 06:54:07;;;;;;;64.45;45.35;;;12.70;99.90;;;;;;5038938;28;20191;-64
2021/05/01 06:56:33;;;;;;;60.90;43.45;;;12.40;99.90;;;;;;5049723;28;20024;-64
2021/05/01 06:59:02;;;;;;;59.05;42.90;;;12.00;99.90;;;;;;5060351;28;20020;-64
2021/05/01 07:01:28;;;;;;;55.15;40.13;;;12.40;99.90;;;;;;5025801;28;20045;-64
2021/05/01 07:03:55;;;;;;;54.03;39.75;;;13.80;99.90;;;;;;5044942;28;20367;-64
2021/05/01 07:06:22;;;;;;;45.38;35.53;;;14.20;99.20;;;;;;5041903;28;20115;-63
2021/05/01 07:08:48;;;;;;;41.05;33.97;;;14.80;97.60;;;;;;5044342;28;20368;-64
2021/05/01 07:11:14;;;;;;;44.60;32.95;;;15.90;95.00;;;;;;5050602;28;20070;-65
2021/05/01 07:13:40;;;;;;;39.53;31.58;;;16.80;89.10;;;;;;5048157;28;20021;-65
2021/05/01 07:16:10;;;;;;;40.50;33.90;;;16.90;89.60;;;;;;5049368;28;20029;-65
2021/05/01 07:18:40;;;;;;;42.13;31.67;;;16.70;90.80;;;;;;5049417;28;20044;-65
2021/05/01 07:21:08;;;;;;;38.33;29.40;;;18.00;79.90;;;;;;5057265;28;20057;-65
2021/05/01 07:23:33;;;;;;;35.72;31.08;;;18.10;80.50;;;;;;5047099;28;21967;-65
2021/05/01 07:25:59;;;;;;;40.17;31.80;;;18.00;73.20;;;;;;5054814;28;20057;-64
2021/05/01 07:28:26;;;;;;;36.42;28.83;;;17.60;78.50;;;;;;5054443;28;20101;-65
2021/05/01 07:30:55;;;;;;;37.35;30.08;;;18.60;69.50;;;;;;5045035;28;20029;-64
2021/05/01 07:33:25;;;;;;;34.78;28.10;;;18.50;66.00;;;;;;5053483;28;20100;-65
2021/05/01 07:35:55;;;;;;;34.22;28.55;;;17.50;69.30;;;;;;5052658;28;20064;-64
2021/05/01 07:38:23;;;;;;;33.75;26.20;;;16.90;72.10;;;;;;5053259;28;20036;-65
2021/05/01 07:40:51;;;;;;;34.97;29.33;;;16.20;75.10;;;;;;5048267;28;20034;-64
2021/05/01 07:43:17;;;;;;;46.00;33.38;;;15.40;77.80;;;;;;5057504;28;20044;-64
2021/05/01 07:45:46;;;;;;;49.90;37.15;;;14.30;90.50;;;;;;5052563;28;20049;-64
2021/05/01 07:48:14;;;;;;;43.92;32.78;;;13.50;95.00;;;;;;5055929;28;20547;-61
2021/05/01 07:50:40;;;;;;;42.08;30.42;;;12.90;96.70;;;;;;5054646;28;20029;-64
2021/05/01 07:53:06;;;;;;;39.45;29.33;;;12.30;97.60;;;;;;5047994;28;20050;-63
2021/05/01 07:55:32;;;;;;;38.40;28.42;;;12.40;98.10;;;;;;5053811;28;20028;-65
2021/05/01 07:57:57;;;;;;;38.40;29.50;;;12.40;97.60;;;;;;5051790;28;20025;-64
2021/05/01 08:00:23;;;;;;;35.25;27.90;;;12.70;98.00;;;;;;5026384;28;20227;-63
2021/05/01 08:02:49;;;;;;;35.83;27.77;;;13.40;97.50;;;;;;5052834;28;20382;-63
2021/05/01 08:05:21;;;;;;;34.20;27.77;;;14.00;95.30;;;;;;5053151;28;20443;-63
2021/05/01 08:07:48;;;;;;;34.22;25.98;;;15.00;93.10;;;;;;5053817;28;20024;-64
2021/05/01 08:10:14;;;;;;;32.28;24.65;;;15.40;91.80;;;;;;5045968;28;20021;-65
2021/05/01 08:12:40;;;;;;;32.50;26.02;;;16.70;82.00;;;;;;5048708;28;20021;-66
2021/05/01 08:15:07;;;;;;;26.65;20.38;;;17.40;78.30;;;;;;5042148;28;20036;-63
2021/05/01 08:17:33;;;;;;;25.88;19.98;;;17.80;70.10;;;;;;5048494;28;20027;-64
2021/05/01 08:19:59;;;;;;;27.30;18.80;;;17.80;62.90;;;;;;5049074;28;20029;-65
2021/05/01 08:22:24;;;;;;;22.25;18.48;;;17.10;62.10;;;;;;5049221;28;20028;-64
2021/05/01 08:24:50;;;;;;;24.27;18.10;;;16.80;65.60;;;;;;5044796;28;20033;-64
2021/05/01 08:27:16;;;;;;;24.15;18.85;;;16.00;65.70;;;;;;5057576;28;20070;-65
2021/05/01 08:29:42;;;;;;;26.83;19.85;;;16.10;65.70;;;;;;5047606;28;20083;-65
2021/05/01 08:32:07;;;;;;;28.45;18.90;;;16.10;69.90;;;;;;5050898;28;20505;-65
2021/05/01 08:34:33;;;;;;;23.35;18.20;;;16.60;69.00;;;;;;5049546;28;20025;-64
2021/05/01 08:37:00;;;;;;;23.63;18.00;;;16.60;68.00;;;;;;5063777;28;20493;-61
2021/05/01 08:39:25;;;;;;;23.17;18.63;;;16.60;64.90;;;;;;5048731;28;20048;-62
2021/05/01 08:41:51;;;;;;;26.25;17.13;;;16.80;63.70;;;;;;5046997;28;20535;-62
2021/05/01 08:44:17;;;;;;;24.50;15.43;;;16.20;67.20;;;;;;5045881;28;20494;-62
2021/05/01 08:46:47;;;;;;;18.85;14.23;;;16.30;62.60;;;;;;5048299;28;20095;-62
2021/05/01 08:49:12;;;;;;;14.60;12.57;;;16.30;60.60;;;;;;5035261;28;20038;-62
2021/05/01 08:51:41;;;;;;;15.23;12.80;;;17.20;56.10;;;;;;5054081;28;20028;-65
2021/05/01 08:54:08;;;;;;;17.33;13.15;;;18.20;52.80;;;;;;5048293;28;20406;-65
2021/05/01 08:56:34;;;;;;;18.35;14.68;;;18.40;52.40;;;;;;5049160;28;20120;-65
2021/05/01 08:59:00;;;;;;;19.95;13.30;;;18.50;52.10;;;;;;5049577;28;20096;-65
2021/05/01 09:01:27;;;;;;;18.48;15.10;;;18.60;51.50;;;;;;5034650;28;20053;-65
2021/05/01 09:03:53;;;;;;;22.23;13.80;;;17.20;56.90;;;;;;5041462;28;20545;-65
2021/05/01 09:06:22;;;;;;;19.85;14.43;;;16.80;56.40;;;;;;5052801;28;20077;-64
2021/05/01 09:08:55;;;;;;;20.80;14.55;;;16.70;58.60;;;;;;5049053;28;20026;-65
2021/05/01 09:11:31;;;;;;;14.13;11.45;;;16.50;58.70;;;;;;5067290;28;20021;-64
2021/05/01 09:13:57;;;;;;;19.75;13.77;;;17.00;55.40;;;;;;5050037;28;20067;-64
2021/05/01 09:16:23;;;;;;;16.10;12.65;;;16.70;57.10;;;;;;5057600;28;20454;-64
2021/05/01 09:18:53;;;;;;;17.00;13.48;;;17.10;57.10;;;;;;5048057;28;20045;-64
2021/05/01 09:21:24;;;;;;;14.30;12.68;;;17.00;53.60;;;;;;5058014;28;20085;-63
2021/05/01 09:23:51;;;;;;;15.43;11.40;;;17.20;54.50;;;;;;5045980;28;20389;-63
2021/05/01 09:26:20;;;;;;;17.08;12.15;;;17.80;55.50;;;;;;5058001;28;20093;-62
2021/05/01 09:28:49;;;;;;;13.88;10.10;;;17.80;54.70;;;;;;5047860;28;20029;-63
2021/05/01 09:31:17;;;;;;;14.07;9.98;;;17.20;53.10;;;;;;5057419;28;20107;-62
2021/05/01 09:33:48;;;;;;;16.83;11.75;;;16.50;56.90;;;;;;5050640;28;20021;-63
2021/05/01 09:36:18;;;;;;;18.33;11.63;;;16.30;54.10;;;;;;5049519;28;20718;-62
2021/05/01 09:38:47;;;;;;;13.77;10.13;;;15.80;55.10;;;;;;5038951;28;20083;-62
2021/05/01 09:41:15;;;;;;;10.82;8.98;;;16.30;55.70;;;;;;5053298;28;20020;-62
2021/05/01 09:44:04;;;;;;;12.63;8.50;;;17.40;47.90;;;;;;5056158;28;20116;-63
2021/05/01 09:46:51;;;;;;;15.80;10.55;;;18.20;49.60;;;;;;5052155;28;20036;-63
2021/05/01 09:49:16;;;;;;;14.60;11.20;;;19.00;49.20;;;;;;5041509;28;20032;-62
2021/05/01 09:51:59;;;;;;;12.02;9.65;;;18.60;49.60;;;;;;5052631;28;20029;-62
2021/05/01 09:54:30;;;;;;;12.27;10.15;;;17.90;51.20;;;;;;5039160;28;20021;-62
2021/05/01 09:57:01;;;;;;;17.13;10.05;;;17.30;50.90;;;;;;5060208;28;20033;-63
2021/05/01 09:59:39;;;;;;;14.40;11.05;;;17.40;50.40;;;;;;5063586;28;20040;-61
2021/05/01 10:02:05;;;;;;;14.95;11.10;;;17.40;52.90;;;;;;5020588;28;20041;-60
2021/05/01 10:04:31;;;;;;;15.60;10.85;;;17.80;53.80;;;;;;5036426;28;20025;-61
2021/05/01 10:07:03;;;;;;;19.48;11.35;;;17.80;52.90;;;;;;5042467;28;20032;-64
2021/05/01 10:09:35;;;;;;;15.85;11.88;;;18.00;50.20;;;;;;5036096;28;20029;-64
2021/05/01 10:12:13;;;;;;;18.60;12.15;;;18.00;50.60;;;;;;5043015;28;20032;-64
2021/05/01 10:14:47;;;;;;;14.07;12.30;;;17.60;50.60;;;;;;5040639;28;20028;-64
2021/05/01 10:17:23;;;;;;;16.80;11.95;;;17.30;48.40;;;;;;5037086;28;20021;-63
2021/05/01 10:20:00;;;;;;;14.57;11.80;;;17.10;50.00;;;;;;5038465;28;20045;-64
2021/05/01 10:22:34;;;;;;;15.57;11.63;;;17.10;50.40;;;;;;5037905;28;20021;-63
2021/05/01 10:25:06;;;;;;;15.20;10.98;;;16.80;50.70;;;;;;5037118;28;20036;-64
2021/05/01 10:27:45;;;;;;;16.88;12.55;;;16.80;51.80;;;;;;5048411;28;20025;-63
2021/05/01 10:30:28;;;;;;;16.25;11.75;;;16.50;50.90;;;;;;5043995;28;20044;-64
2021/05/01 10:32:58;;;;;;;13.57;10.80;;;15.90;53.00;;;;;;5042621;28;20021;-63
2021/05/01 10:35:29;;;;;;;16.60;12.50;;;16.20;53.20;;;;;;5037452;28;20040;-64
2021/05/01 10:37:56;;;;;;;18.42;12.23;;;15.60;55.30;;;;;;5034085;28;20151;-65
2021/05/01 10:40:23;;;;;;;16.80;12.20;;;15.40;56.50;;;;;;5041327;28;20052;-64
2021/05/01 10:43:08;;;;;;;17.02;12.20;;;15.70;56.30;;;;;;5041539;28;20031;-63
2021/05/01 10:45:34;;;;;;;20.65;12.35;;;15.80;55.60;;;;;;5034985;28;20026;-63
2021/05/01 10:48:08;;;;;;;17.50;11.40;;;15.30;54.60;;;;;;5045597;28;20024;-65
2021/05/01 10:50:34;;;;;;;;;;;15.40;57.00;;;;;;5039453;28;20025;-62
2021/05/01 10:52:59;;;;;;;14.80;10.45;;;15.90;50.70;;;;;;5039136;28;19909;-63
2021/05/01 10:55:26;;;;;;;15.25;9.77;;;15.40;53.20;;;;;;5044088;28;20032;-63
2021/05/01 10:58:01;;;;;;;17.67;11.75;;;15.00;52.40;;;;;;5039400;28;20022;-64
2021/05/01 11:00:41;;;;;;;13.68;11.07;;;15.70;54.00;;;;;;5048600;28;20033;-64
2021/05/01 11:03:08;;;;;;;15.07;10.35;;;15.90;52.80;;;;;;5023809;28;20057;-64
2021/05/01 11:05:37;;;;;;;13.55;10.50;;;16.00;51.80;;;;;;5048118;28;20025;-63
2021/05/01 11:08:32;;;;;;;13.80;11.00;;;16.30;52.20;;;;;;5048081;28;20037;-63
2021/05/01 11:10:58;;;;;;;13.85;9.27;;;16.50;51.90;;;;;;5038331;28;20041;-65
2021/05/01 11:13:29;;;;;;;11.07;8.43;;;16.70;48.30;;;;;;5053986;28;20024;-63
2021/05/01 11:16:04;;;;;;;13.95;9.35;;;16.80;47.70;;;;;;5055510;28;20509;-63
2021/05/01 11:18:39;;;;;;;9.45;8.07;;;16.60;48.30;;;;;;5061591;28;20024;-65
2021/05/01 11:21:07;;;;;;;10.73;8.05;;;16.30;48.90;;;;;;5042848;28;20116;-64
2021/05/01 11:23:35;;;;;;;12.15;7.03;;;16.00;46.90;;;;;;5038722;28;20033;-63
2021/05/01 11:26:04;;;;;;;16.27;9.32;;;16.30;46.30;;;;;;5040909;28;20037;-65
2021/05/01 11:28:32;;;;;;;11.05;7.88;;;15.50;47.70;;;;;;5043958;28;20025;-64
2021/05/01 11:30:58;;;;;;;10.30;7.13;;;16.30;47.90;;;;;;5049321;28;20029;-65
2021/05/01 11:33:26;;;;;;;11.45;9.05;;;16.70;48.60;;;;;;5056091;28;20024;-65
2021/05/01 11:35:52;;;;;;;10.63;7.57;;;16.70;47.50;;;;;;5057358;28;20029;-64
2021/05/01 11:38:38;;;;;;;9.82;7.53;;;16.60;46.00;;;;;;5054383;28;20029;-65
2021/05/01 11:41:09;;;;;;;14.43;8.80;;;16.20;45.30;;;;;;5049111;28;20043;-64
2021/05/01 11:43:36;;;;;;;11.20;8.55;;;16.00;46.70;;;;;;5057015;28;20661;-65
2021/05/01 11:46:17;;;;;;;14.13;9.13;;;15.60;47.10;;;;;;5050747;28;20040;-64
2021/05/01 11:49:08;;;;;;;14.43;8.65;;;15.50;46.10;;;;;;5052710;28;20036;-63
2021/05/01 11:52:01;;;;;;;11.15;8.88;;;15.70;45.90;;;;;;5043081;28;20415;-64
2021/05/01 11:54:49;;;;;;;14.70;9.25;;;15.30;47.60;;;;;;5042715;28;20119;-64
2021/05/01 11:57:21;;;;;;;15.82;8.77;;;14.90;49.60;;;;;;5049799;28;20074;-65
2021/05/01 11:59:47;;;;;;;10.30;8.38;;;15.30;49.10;;;;;;5038937;28;20057;-64
2021/05/01 12:02:20;;;;;;;13.30;7.47;;;15.40;48.80;;;;;;5046479;28;20067;-65
2021/05/01 12:05:07;;;;;;;13.43;7.17;;;15.30;46.90;;;;;;5038272;28;20052;-63
2021/05/01 12:07:36;;;;;;;9.52;6.82;;;15.60;46.50;;;;;;5041044;28;20041;-64
2021/05/01 12:10:09;;;;;;;10.50;8.27;;;15.50;49.20;;;;;;5039044;28;20127;-64
2021/05/01 12:12:39;;;;;;;11.25;8.63;;;15.60;46.60;;;;;;5038958;28;20030;-63
2021/05/01 12:15:08;;;;;;;12.15;7.05;;;15.20;45.70;;;;;;5041537;28;20112;-63
2021/05/01 12:17:37;;;;;;;15.60;10.90;;;15.30;48.30;;;;;;5036664;28;20459;-63
2021/05/01 12:20:09;;;;;;;9.60;6.75;;;15.00;46.30;;;;;;5037296;28;20029;-64
2021/05/01 12:22:35;;;;;;;12.07;8.30;;;15.10;45.90;;;;;;5039430;28;20033;-64
2021/05/01 12:25:21;;;;;;;11.80;7.95;;;15.40;45.90;;;;;;5036743;28;20486;-63
2021/05/01 12:27:52;;;;;;;11.52;8.05;;;15.60;45.40;;;;;;5035339;28;20045;-63
2021/05/01 12:30:39;;;;;;;12.73;8.48;;;15.50;46.70;;;;;;5038721;28;20080;-63
2021/05/01 12:33:23;;;;;;;12.30;7.75;;;15.70;48.60;;;;;;5040204;28;20025;-64
2021/05/01 12:35:49;;;;;;;;;;;15.50;47.40;;;;;;5042459;28;20033;-63
2021/05/01 12:38:15;;;;;;;10.00;8.13;;;15.50;46.70;;;;;;5036907;28;20337;-64